Αρχική σελίδα
METAR-TAF:

METAR-TAF

Αεροδρόμια :

Saipan, Νήσοι Μαριάννα, Ηνωμένες Πολιτείες Αμερικής

γεωγραφικό πλάτος: 15-07N, γεωγραφικό μήκος: 145-44E, υψόμετρο: 66 μ

Παρών καιρός

Η αναφορά έγινε 54 λεπτά πριν, στις 04:54 UTC
Άνεμος 18 kt από Α/BA
Θερμοκρασία 31°C
Υγρασία 59%
Πίεση 1012 hPa
Ορατότητα: 16.1 χλμ
Λίγα νέφη σε ύψος 2200 πόδια

METAR: PGSN 040454Z 06018KT 10SM FEW022 31/22 A2987 RMK AO2 SLP135 T03060217

Χρόνος: 15:48 (05:48 UTC)

Πρόγνωση Καιρού

Η αναφορά έγινε 24 λεπτά πριν, στις 05:24 UTC
Η πρόγνωση ισχύει από τις 04 στις 06 UTC έως τις 05 στις 06 UTC
Άνεμος 16 kt από BA
Ορατότητα: 10 χλμ
Διάσπαρτα νέφη σε ύψος 2200 πόδια

TAF: PGSN 040524Z 0406/0506 05016KT P6SM SCT022

Μετεωρολογικές αναφορές και προγνώσεις για περισσότερα από 4000 αεροδρόμια (δελτία METAR και TAF).

Οι διαθέσιμοι σταθμοί απεικονίζονται στο χάρτη με κίτρινες και κόκκινες κουκκίδες.

Μετακινήστε το ποντίκι πάνω από τις κουκκίδες για να δείτε το όνομα του σταθμού.

Στη συνέχεια, κάντε κλικ για να δείτε τις μετεωρολογικές αναφορές και τις προγνώσεις καιρού.

Για να αλλάξετε το χάρτη: κάντε κλικ στα πράσινα κουμπιά με τον μαύρο σταυρό για να ζουμάρετε, στο πράσινο κουμπί με την παύλα για να αφαιρέσετε το ζουμ ή στα πράσινα βέλη για να αντιπαραβάλλετε χάρτες.


METAR-TAF: